Time;durP1;ratioP1;P1;durP2;ratioP2;P2;SDS_P1;SDS_P2;PMS_P1;PMS_P2;Temp;Humidity;BMP_temperature;BMP_pressure;BME280_temperature;BME280_humidity;BME280_pressure;Samples;Min_cycle;Max_cycle;Signal;HPM_P1;HPM_P2
2023/08/10 00:01:36;;;;;;;4.35;2.33;;;14.60;99.90;;;;;;4863382;29;20213;-48
2023/08/10 00:04:02;;;;;;;3.55;2.20;;;14.60;99.90;;;;;;4863222;29;20190;-49
2023/08/10 00:06:27;;;;;;;4.30;2.38;;;14.60;99.90;;;;;;4863102;29;20655;-51
2023/08/10 00:08:53;;;;;;;2.53;2.25;;;14.60;99.90;;;;;;4846993;29;20543;-48
2023/08/10 00:11:18;;;;;;;2.78;2.20;;;14.60;99.90;;;;;;4863079;29;20643;-51
2023/08/10 00:13:44;;;;;;;2.60;2.40;;;14.60;99.90;;;;;;4863228;29;20289;-49
2023/08/10 00:16:10;;;;;;;3.92;2.35;;;14.50;99.90;;;;;;4863155;29;20182;-49
2023/08/10 00:18:35;;;;;;;4.10;2.35;;;14.30;99.90;;;;;;4863056;29;20631;-51
2023/08/10 00:21:02;;;;;;;5.47;3.00;;;14.20;99.90;;;;;;4862776;29;20275;-47
2023/08/10 00:23:28;;;;;;;5.05;3.13;;;14.30;99.90;;;;;;4862887;29;20662;-50
2023/08/10 00:25:53;;;;;;;3.33;2.65;;;14.30;99.90;;;;;;4863070;29;20207;-51
2023/08/10 00:28:19;;;;;;;3.38;2.35;;;14.40;99.90;;;;;;4862833;29;20257;-51
2023/08/10 00:30:45;;;;;;;6.47;2.80;;;14.30;99.90;;;;;;4862759;29;20265;-52
2023/08/10 00:33:11;;;;;;;3.55;2.75;;;14.30;99.90;;;;;;4862860;29;20218;-48
2023/08/10 00:35:40;;;;;;;3.15;2.47;;;14.30;99.90;;;;;;4862440;29;21190;-52
2023/08/10 00:38:06;;;;;;;6.60;3.15;;;14.20;99.90;;;;;;4862704;29;20183;-51
2023/08/10 00:40:32;;;;;;;4.50;2.78;;;14.30;99.90;;;;;;4862664;29;20717;-50
2023/08/10 00:43:00;;;;;;;4.20;2.67;;;14.30;99.90;;;;;;4862949;29;20277;-50
2023/08/10 00:45:30;;;;;;;2.85;2.60;;;14.30;99.90;;;;;;4862772;29;20555;-51
2023/08/10 00:47:56;;;;;;;2.95;2.67;;;14.20;99.90;;;;;;4862495;29;20182;-50
2023/08/10 00:50:23;;;;;;;4.25;2.85;;;14.10;99.90;;;;;;4862267;29;20197;-51
2023/08/10 00:52:48;;;;;;;3.30;2.83;;;14.20;99.90;;;;;;4862813;29;20246;-48
2023/08/10 00:55:14;;;;;;;3.08;2.75;;;14.20;99.90;;;;;;4862502;29;20186;-51
2023/08/10 00:57:40;;;;;;;4.22;3.10;;;14.20;99.90;;;;;;4862433;29;20213;-51
2023/08/10 01:00:10;;;;;;;3.55;2.90;;;14.20;99.90;;;;;;4862234;29;20279;-51
2023/08/10 01:02:39;;;;;;;4.88;3.22;;;14.10;99.90;;;;;;4862239;29;20189;-52
2023/08/10 01:05:11;;;;;;;6.00;3.78;;;14.10;99.90;;;;;;4862051;29;20661;-50
2023/08/10 01:08:00;;;;;;;4.70;3.63;;;14.10;99.90;;;;;;4862308;29;20230;-48
2023/08/10 01:11:00;;;;;;;4.70;3.25;;;14.20;99.90;;;;;;4862177;29;20205;-53
2023/08/10 01:13:38;;;;;;;3.58;3.20;;;14.20;99.90;;;;;;4862471;29;20229;-51
2023/08/10 01:16:09;;;;;;;4.85;3.15;;;14.10;99.90;;;;;;4862282;29;20174;-49
2023/08/10 01:18:37;;;;;;;5.93;3.55;;;14.10;99.90;;;;;;4862177;29;20182;-49
2023/08/10 01:21:28;;;;;;;2.97;2.78;;;14.20;99.90;;;;;;4861958;29;20282;-51
2023/08/10 01:23:57;;;;;;;4.05;2.83;;;14.10;99.90;;;;;;4860990;29;20659;-48
2023/08/10 01:26:26;;;;;;;5.07;2.83;;;14.20;99.90;;;;;;4861952;29;20674;-52
2023/08/10 01:28:54;;;;;;;4.00;3.08;;;14.20;99.90;;;;;;4861908;29;20619;-49
2023/08/10 01:31:19;;;;;;;4.35;3.00;;;14.20;99.90;;;;;;4862048;29;20189;-50
2023/08/10 01:33:45;;;;;;;3.30;2.85;;;14.20;99.90;;;;;;4861746;29;20186;-52
2023/08/10 01:36:10;;;;;;;5.68;3.13;;;14.20;99.90;;;;;;4861475;29;20710;-51
2023/08/10 01:38:36;;;;;;;4.20;3.00;;;14.20;99.90;;;;;;4861668;29;20182;-52
2023/08/10 01:41:02;;;;;;;3.22;2.92;;;14.20;99.90;;;;;;4861696;29;20217;-51
2023/08/10 01:43:27;;;;;;;7.38;3.17;;;14.10;99.90;;;;;;4861660;29;20182;-50
2023/08/10 01:45:55;;;;;;;3.47;3.00;;;14.00;99.90;;;;;;4861496;29;20586;-48
2023/08/10 01:48:29;;;;;;;3.85;3.28;;;14.00;99.90;;;;;;4861432;29;20264;-52
2023/08/10 01:50:57;;;;;;;3.42;3.13;;;14.10;99.90;;;;;;4861466;29;20212;-50
2023/08/10 01:53:31;;;;;;;3.88;3.30;;;14.00;99.90;;;;;;4861998;29;20186;-50
2023/08/10 01:55:57;;;;;;;5.35;3.10;;;14.10;99.90;;;;;;4861575;29;20174;-48
2023/08/10 01:58:23;;;;;;;4.15;3.20;;;14.00;99.90;;;;;;4861663;29;20181;-52
2023/08/10 02:00:51;;;;;;;3.35;2.97;;;13.90;99.90;;;;;;4861595;29;20198;-51
2023/08/10 02:03:17;;;;;;;5.05;3.60;;;13.90;99.90;;;;;;4861154;29;20222;-50
2023/08/10 02:05:43;;;;;;;4.13;3.10;;;13.90;99.90;;;;;;4861444;29;20182;-53
2023/08/10 02:08:08;;;;;;;4.47;3.40;;;14.00;99.90;;;;;;4861341;29;20186;-51
2023/08/10 02:10:34;;;;;;;6.10;3.38;;;14.00;99.90;;;;;;4861296;29;20651;-51
2023/08/10 02:13:00;;;;;;;5.18;3.50;;;14.00;99.90;;;;;;4861216;29;20178;-51
2023/08/10 02:15:25;;;;;;;6.97;3.72;;;14.00;99.90;;;;;;4861057;29;20219;-52
2023/08/10 02:17:51;;;;;;;5.10;3.55;;;14.00;99.90;;;;;;4860765;29;20182;-52
2023/08/10 02:20:17;;;;;;;3.83;3.40;;;13.90;99.90;;;;;;4861209;29;20686;-48
2023/08/10 02:22:49;;;;;;;6.13;3.35;;;13.90;99.90;;;;;;4861147;29;20281;-52
2023/08/10 02:25:15;;;;;;;5.38;3.38;;;13.90;99.90;;;;;;4861056;29;20178;-52
2023/08/10 02:27:41;;;;;;;3.60;3.30;;;13.90;99.90;;;;;;4861035;29;20177;-54
2023/08/10 02:30:09;;;;;;;3.80;3.25;;;13.80;99.90;;;;;;4861036;29;20539;-51
2023/08/10 02:32:35;;;;;;;4.00;3.50;;;13.70;99.90;;;;;;4860905;29;20189;-52
2023/08/10 02:35:04;;;;;;;4.80;3.47;;;13.60;99.90;;;;;;4861572;29;20202;-51
2023/08/10 02:37:30;;;;;;;3.78;3.38;;;13.60;99.90;;;;;;4860989;29;20256;-49
2023/08/10 02:39:55;;;;;;;4.28;3.55;;;13.70;99.90;;;;;;4844429;29;20719;-53
2023/08/10 02:42:21;;;;;;;5.50;3.72;;;13.80;99.90;;;;;;4861062;29;20659;-52
2023/08/10 02:44:49;;;;;;;6.15;3.90;;;13.80;99.90;;;;;;4860997;29;20197;-52
2023/08/10 02:47:15;;;;;;;4.28;3.60;;;13.70;99.90;;;;;;4844566;29;20194;-49
2023/08/10 02:49:40;;;;;;;4.15;3.20;;;13.80;99.90;;;;;;4861170;29;20264;-53
2023/08/10 02:52:06;;;;;;;4.57;3.55;;;13.80;99.90;;;;;;4860935;29;20291;-53
2023/08/10 02:54:32;;;;;;;5.90;3.65;;;13.70;99.90;;;;;;4860867;29;20182;-51
2023/08/10 02:56:58;;;;;;;3.42;3.10;;;13.70;99.90;;;;;;4860763;29;20175;-48
2023/08/10 02:59:23;;;;;;;4.13;3.00;;;13.80;99.90;;;;;;4860745;29;20286;-49
2023/08/10 03:01:49;;;;;;;4.40;3.25;;;13.70;99.90;;;;;;4860550;29;20224;-52
2023/08/10 03:04:15;;;;;;;4.03;3.08;;;13.80;99.90;;;;;;4860850;29;20545;-52
2023/08/10 03:06:40;;;;;;;3.67;3.20;;;13.80;99.90;;;;;;4860580;29;20182;-51
2023/08/10 03:09:06;;;;;;;4.00;3.47;;;13.70;99.90;;;;;;4861040;29;20269;-52
2023/08/10 03:11:33;;;;;;;5.00;3.75;;;13.70;99.90;;;;;;4860618;29;20182;-51
2023/08/10 03:13:58;;;;;;;3.88;3.30;;;13.60;99.90;;;;;;4860606;29;20182;-53
2023/08/10 03:16:24;;;;;;;5.32;3.35;;;13.70;99.90;;;;;;4860437;29;20182;-52
2023/08/10 03:18:50;;;;;;;4.93;3.05;;;13.60;99.90;;;;;;4860786;29;20592;-53
2023/08/10 03:21:17;;;;;;;3.70;3.40;;;13.60;99.90;;;;;;4860628;29;20623;-49
2023/08/10 03:23:42;;;;;;;5.30;3.50;;;13.60;99.90;;;;;;4860621;29;20182;-49
2023/08/10 03:26:08;;;;;;;3.65;3.22;;;13.60;99.90;;;;;;4860852;29;20226;-50
2023/08/10 03:28:34;;;;;;;5.13;3.50;;;13.60;99.90;;;;;;4861621;29;20238;-53
2023/08/10 03:31:00;;;;;;;5.60;3.30;;;13.50;99.90;;;;;;4863767;29;20185;-51
2023/08/10 03:33:25;;;;;;;3.75;3.35;;;13.50;99.90;;;;;;4863789;29;20190;-48
2023/08/10 03:35:51;;;;;;;5.35;3.38;;;13.50;99.90;;;;;;4863688;29;20328;-51
2023/08/10 03:38:17;;;;;;;4.40;3.28;;;13.40;99.90;;;;;;4863822;29;20709;-51
2023/08/10 03:40:42;;;;;;;4.05;3.33;;;13.40;99.90;;;;;;4863738;29;20552;-52
2023/08/10 03:43:08;;;;;;;4.60;3.28;;;13.40;99.90;;;;;;4863791;29;20182;-52
2023/08/10 03:45:33;;;;;;;3.70;2.80;;;13.50;99.90;;;;;;4863516;29;20295;-51
2023/08/10 03:47:59;;;;;;;5.72;3.70;;;13.60;99.90;;;;;;4863757;29;20182;-51
2023/08/10 03:50:25;;;;;;;5.85;3.42;;;13.60;99.90;;;;;;4863643;29;20190;-53
2023/08/10 03:52:50;;;;;;;5.00;3.40;;;13.60;99.90;;;;;;4863483;29;20187;-54
2023/08/10 03:55:18;;;;;;;5.30;3.47;;;13.60;99.90;;;;;;4863587;29;20186;-48
2023/08/10 03:57:44;;;;;;;5.60;3.13;;;13.60;99.90;;;;;;4863362;29;20196;-53
2023/08/10 04:00:11;;;;;;;3.38;3.03;;;13.60;99.90;;;;;;4863215;29;20296;-52
2023/08/10 04:02:37;;;;;;;4.25;3.08;;;13.60;99.90;;;;;;4863477;29;20647;-53
2023/08/10 04:05:06;;;;;;;3.53;3.22;;;13.50;99.90;;;;;;4863423;29;20179;-51
2023/08/10 04:07:37;;;;;;;4.57;3.30;;;13.50;99.90;;;;;;4863389;29;20230;-53
2023/08/10 04:10:07;;;;;;;3.38;2.90;;;13.60;99.90;;;;;;4863326;29;20193;-52
2023/08/10 04:12:36;;;;;;;4.20;3.35;;;13.50;99.90;;;;;;4863089;29;20178;-52
2023/08/10 04:15:02;;;;;;;4.72;3.17;;;13.50;99.90;;;;;;4863285;29;20269;-50
2023/08/10 04:17:28;;;;;;;5.30;3.20;;;13.50;99.90;;;;;;4863002;29;20174;-52
2023/08/10 04:19:56;;;;;;;3.83;3.15;;;13.50;99.90;;;;;;4863120;29;20576;-49
2023/08/10 04:22:22;;;;;;;6.65;3.38;;;13.40;99.90;;;;;;4863086;29;20231;-50
2023/08/10 04:24:47;;;;;;;4.13;3.20;;;13.20;99.90;;;;;;4862993;29;20242;-48
2023/08/10 04:27:13;;;;;;;5.00;3.38;;;13.30;99.90;;;;;;4862808;29;20269;-49
2023/08/10 04:29:43;;;;;;;3.75;3.30;;;13.30;99.90;;;;;;4863137;29;20185;-50
2023/08/10 04:32:09;;;;;;;5.40;3.13;;;13.40;99.90;;;;;;4850172;29;20189;-53
2023/08/10 04:34:34;;;;;;;4.90;3.15;;;13.40;99.90;;;;;;4844385;29;20187;-53
2023/08/10 04:37:00;;;;;;;4.93;3.30;;;13.40;99.90;;;;;;4844122;29;20257;-50
2023/08/10 04:39:27;;;;;;;3.78;3.40;;;13.40;99.90;;;;;;4843862;29;20674;-52
2023/08/10 04:41:52;;;;;;;4.53;3.28;;;13.30;99.90;;;;;;4849837;29;20213;-48
2023/08/10 04:44:18;;;;;;;4.82;3.17;;;13.30;99.90;;;;;;4853944;29;20186;-52
2023/08/10 04:46:44;;;;;;;6.05;3.70;;;13.30;99.90;;;;;;4852498;29;20226;-49
2023/08/10 04:49:10;;;;;;;5.75;3.50;;;13.40;99.90;;;;;;4852705;29;20193;-53
2023/08/10 04:51:36;;;;;;;4.90;3.42;;;13.50;99.90;;;;;;4853765;29;20186;-53
2023/08/10 04:54:02;;;;;;;3.97;3.53;;;13.50;99.90;;;;;;4851093;29;20185;-52
2023/08/10 04:56:28;;;;;;;5.47;3.80;;;13.50;99.90;;;;;;4843851;29;20182;-50
2023/08/10 04:58:53;;;;;;;4.53;3.42;;;13.40;99.90;;;;;;4844017;29;20719;-53
2023/08/10 05:01:19;;;;;;;4.30;3.42;;;13.50;99.90;;;;;;4843629;29;20211;-50
2023/08/10 05:03:46;;;;;;;6.00;3.80;;;13.50;99.90;;;;;;4843735;29;20282;-50
2023/08/10 05:06:12;;;;;;;4.05;3.60;;;13.50;99.90;;;;;;4843706;29;20179;-51
2023/08/10 05:08:38;;;;;;;5.05;3.55;;;13.60;99.90;;;;;;4843649;29;20182;-54
2023/08/10 05:11:04;;;;;;;4.15;3.40;;;13.60;99.90;;;;;;4843543;29;20215;-52
2023/08/10 05:13:30;;;;;;;4.30;3.90;;;13.60;99.90;;;;;;4843795;29;20269;-51
2023/08/10 05:15:55;;;;;;;6.35;3.95;;;13.70;99.90;;;;;;4843169;29;20183;-53
2023/08/10 05:18:23;;;;;;;7.60;4.53;;;13.70;99.90;;;;;;4843665;29;20175;-53
2023/08/10 05:20:49;;;;;;;6.70;4.32;;;13.80;99.90;;;;;;4843516;29;20217;-52
2023/08/10 05:23:15;;;;;;;5.07;3.90;;;13.80;99.90;;;;;;4843442;29;20178;-52
2023/08/10 05:25:41;;;;;;;5.35;3.85;;;13.90;99.90;;;;;;4843371;29;20194;-53
2023/08/10 05:28:07;;;;;;;7.25;4.00;;;14.00;99.90;;;;;;4843511;29;20232;-50
2023/08/10 05:30:33;;;;;;;4.32;3.67;;;14.00;99.90;;;;;;4843459;29;20203;-52
2023/08/10 05:32:59;;;;;;;4.90;3.40;;;14.10;99.90;;;;;;4843363;29;20179;-53
2023/08/10 05:35:25;;;;;;;4.47;3.40;;;14.10;99.90;;;;;;4843118;29;20183;-53
2023/08/10 05:37:51;;;;;;;3.58;3.25;;;14.20;99.90;;;;;;4843322;29;20182;-51
2023/08/10 05:40:16;;;;;;;4.97;3.40;;;14.30;99.90;;;;;;4843048;29;20214;-52
2023/08/10 05:42:43;;;;;;;4.95;3.50;;;14.30;99.90;;;;;;4843030;29;20183;-54
2023/08/10 05:45:14;;;;;;;5.97;3.35;;;14.40;99.90;;;;;;4843285;29;20183;-54
2023/08/10 05:47:40;;;;;;;4.90;3.33;;;14.60;99.90;;;;;;4843112;29;20175;-53
2023/08/10 05:50:06;;;;;;;6.43;3.50;;;14.60;99.90;;;;;;4843031;29;20187;-52
2023/08/10 05:52:32;;;;;;;4.50;3.20;;;14.70;99.90;;;;;;4842323;29;20226;-52
2023/08/10 05:54:58;;;;;;;4.18;3.25;;;14.80;99.90;;;;;;4842882;29;20183;-51
2023/08/10 05:57:23;;;;;;;4.30;3.20;;;14.90;99.90;;;;;;4843078;29;20186;-53
2023/08/10 05:59:49;;;;;;;6.38;3.20;;;15.10;99.90;;;;;;4842837;29;20179;-51
2023/08/10 06:02:15;;;;;;;3.70;3.08;;;15.10;99.90;;;;;;4865489;29;20284;-53
2023/08/10 06:04:41;;;;;;;4.22;3.00;;;15.30;99.90;;;;;;4879859;29;20264;-52
2023/08/10 06:07:07;;;;;;;3.60;3.05;;;15.30;99.90;;;;;;4879533;29;20185;-53
2023/08/10 06:09:33;;;;;;;3.60;3.13;;;15.40;99.90;;;;;;4879112;29;20205;-52
2023/08/10 06:12:00;;;;;;;4.25;3.47;;;15.50;99.90;;;;;;4879934;29;20193;-53
2023/08/10 06:14:26;;;;;;;6.43;3.83;;;15.60;99.90;;;;;;4879762;29;20183;-52
2023/08/10 06:16:52;;;;;;;4.10;3.15;;;15.70;99.90;;;;;;4879320;29;20275;-50
2023/08/10 06:19:18;;;;;;;4.90;3.13;;;15.80;99.90;;;;;;4879088;29;20611;-54
2023/08/10 06:21:45;;;;;;;5.07;3.28;;;15.90;99.90;;;;;;4879266;29;20268;-50
2023/08/10 06:24:10;;;;;;;3.63;2.90;;;16.00;99.90;;;;;;4861044;29;20197;-50
2023/08/10 06:26:36;;;;;;;3.55;3.25;;;16.20;99.90;;;;;;4861251;29;20265;-52
2023/08/10 06:29:05;;;;;;;6.20;2.90;;;16.30;99.90;;;;;;4861109;29;20261;-54
2023/08/10 06:31:31;;;;;;;4.47;2.70;;;16.40;99.90;;;;;;4861047;29;20213;-53
2023/08/10 06:33:56;;;;;;;3.90;2.72;;;16.40;99.90;;;;;;4860927;29;20281;-53
2023/08/10 06:36:22;;;;;;;3.10;2.80;;;16.60;99.90;;;;;;4861028;29;20308;-52
2023/08/10 06:38:49;;;;;;;3.28;2.60;;;16.70;99.90;;;;;;4860872;29;20197;-52
2023/08/10 06:41:15;;;;;;;4.82;2.65;;;16.80;99.90;;;;;;4860894;29;20229;-53
2023/08/10 06:43:41;;;;;;;2.88;2.15;;;16.90;99.90;;;;;;4860982;29;20174;-53
2023/08/10 06:46:06;;;;;;;3.58;2.17;;;17.10;99.90;;;;;;4860981;29;20230;-53
2023/08/10 06:48:32;;;;;;;4.05;2.22;;;17.30;99.90;;;;;;4860893;29;20540;-54
2023/08/10 06:50:58;;;;;;;3.58;1.98;;;17.50;99.90;;;;;;4860801;29;20655;-53
2023/08/10 06:53:23;;;;;;;4.00;2.17;;;17.60;99.90;;;;;;4860694;29;20652;-51
2023/08/10 06:55:50;;;;;;;3.50;1.90;;;17.50;99.90;;;;;;4861019;29;20182;-53
2023/08/10 06:58:16;;;;;;;2.97;2.20;;;17.60;99.90;;;;;;4860827;29;20190;-54
2023/08/10 07:00:42;;;;;;;2.25;1.80;;;17.70;99.90;;;;;;4860905;29;20206;-53
2023/08/10 07:03:08;;;;;;;3.58;1.90;;;17.80;99.90;;;;;;4862752;29;20193;-53
2023/08/10 07:05:38;;;;;;;3.38;1.50;;;17.90;99.90;;;;;;4864380;29;20270;-51
2023/08/10 07:08:04;;;;;;;2.22;1.70;;;18.10;99.90;;;;;;4864212;29;20178;-53
2023/08/10 07:10:30;;;;;;;3.80;1.80;;;18.10;99.90;;;;;;4864398;29;20265;-51
2023/08/10 07:12:55;;;;;;;2.70;1.67;;;18.30;99.90;;;;;;4864322;29;20281;-53
2023/08/10 07:15:21;;;;;;;3.55;1.63;;;18.40;99.90;;;;;;4864240;29;20182;-53
2023/08/10 07:17:47;;;;;;;3.78;1.80;;;18.60;99.90;;;;;;4864135;29;20229;-55
2023/08/10 07:20:13;;;;;;;5.05;1.80;;;18.70;99.90;;;;;;4863899;29;20246;-52
2023/08/10 07:22:41;;;;;;;5.60;1.83;;;18.80;99.90;;;;;;4863912;29;20192;-53
2023/08/10 07:25:07;;;;;;;4.28;1.63;;;18.90;99.90;;;;;;4864072;29;20257;-54
2023/08/10 07:27:33;;;;;;;4.60;1.73;;;19.10;99.90;;;;;;4864329;29;20644;-52
2023/08/10 07:29:59;;;;;;;5.05;1.92;;;19.10;99.90;;;;;;4847400;29;20663;-53
2023/08/10 07:32:26;;;;;;;1.88;1.35;;;19.20;99.90;;;;;;4863692;29;20558;-53
2023/08/10 07:34:51;;;;;;;2.13;1.58;;;19.30;99.90;;;;;;4863787;29;20186;-53
2023/08/10 07:37:17;;;;;;;2.55;1.33;;;19.30;99.90;;;;;;4863386;29;20230;-50
2023/08/10 07:39:43;;;;;;;2.90;1.40;;;19.40;99.90;;;;;;4863916;29;20178;-52
2023/08/10 07:42:09;;;;;;;3.47;1.60;;;19.50;99.90;;;;;;4863769;29;20218;-54
2023/08/10 07:44:34;;;;;;;2.35;1.73;;;19.30;99.90;;;;;;4863792;29;20636;-54
2023/08/10 07:47:00;;;;;;;3.88;1.58;;;19.20;99.90;;;;;;4863638;29;20186;-52
2023/08/10 07:49:25;;;;;;;2.72;1.48;;;19.20;99.90;;;;;;4863473;29;20182;-54
2023/08/10 07:51:51;;;;;;;2.63;1.35;;;19.50;99.90;;;;;;4863496;29;20190;-53
2023/08/10 07:54:17;;;;;;;2.10;1.40;;;19.50;99.90;;;;;;4863718;29;20182;-52
2023/08/10 07:56:43;;;;;;;3.78;1.50;;;19.40;99.90;;;;;;4863659;29;20513;-54
2023/08/10 07:59:09;;;;;;;3.42;1.60;;;19.70;99.90;;;;;;4863440;29;20182;-54
2023/08/10 08:01:34;;;;;;;2.15;1.63;;;19.80;99.90;;;;;;4863251;29;20225;-54
2023/08/10 08:04:00;;;;;;;2.80;1.50;;;20.00;99.90;;;;;;4863362;29;20194;-53
2023/08/10 08:06:26;;;;;;;3.20;1.50;;;20.10;99.90;;;;;;4846562;29;20670;-53
2023/08/10 08:08:51;;;;;;;2.80;1.63;;;20.10;99.90;;;;;;4863448;29;20185;-53
2023/08/10 08:11:17;;;;;;;3.60;1.30;;;20.20;99.90;;;;;;4863278;29;20677;-54
2023/08/10 08:13:43;;;;;;;2.92;1.48;;;20.30;99.90;;;;;;4862752;29;20190;-53
2023/08/10 08:16:10;;;;;;;2.83;1.70;;;20.50;99.90;;;;;;4863035;29;20224;-52
2023/08/10 08:18:44;;;;;;;2.17;1.30;;;20.50;99.90;;;;;;4863054;29;20181;-52
2023/08/10 08:21:18;;;;;;;1.45;1.20;;;20.60;99.90;;;;;;4862822;29;20236;-53
2023/08/10 08:23:45;;;;;;;3.05;1.40;;;20.70;99.90;;;;;;4863170;29;20186;-54
2023/08/10 08:26:13;;;;;;;1.67;1.25;;;20.80;99.90;;;;;;4863296;29;20216;-52
2023/08/10 08:28:38;;;;;;;2.40;1.38;;;20.80;99.90;;;;;;4862947;29;20178;-53
2023/08/10 08:31:05;;;;;;;2.78;1.20;;;21.00;99.90;;;;;;4862743;29;20197;-53
2023/08/10 08:33:30;;;;;;;5.53;1.75;;;21.10;99.90;;;;;;4862668;29;20356;-53
2023/08/10 08:35:56;;;;;;;3.00;1.40;;;21.10;99.90;;;;;;4862664;29;20330;-53
2023/08/10 08:38:23;;;;;;;2.33;1.40;;;21.20;99.90;;;;;;4862900;29;20257;-54
2023/08/10 08:40:49;;;;;;;2.72;1.13;;;21.30;99.90;;;;;;4862636;29;20218;-54
2023/08/10 08:43:16;;;;;;;2.88;1.02;;;21.40;99.90;;;;;;4862845;29;20181;-53
2023/08/10 08:45:42;;;;;;;2.85;1.10;;;21.60;99.90;;;;;;4862641;29;20226;-53
2023/08/10 08:48:09;;;;;;;2.25;1.50;;;21.60;99.90;;;;;;4862454;29;20189;-51
2023/08/10 08:50:36;;;;;;;1.33;1.17;;;21.70;99.90;;;;;;4862603;29;20190;-54
2023/08/10 08:53:07;;;;;;;2.38;1.40;;;21.80;99.90;;;;;;4862821;29;20178;-55
2023/08/10 08:55:32;;;;;;;3.10;1.38;;;21.90;99.90;;;;;;4862508;29;20181;-53
2023/08/10 08:57:58;;;;;;;2.40;1.27;;;22.00;99.90;;;;;;4845803;29;20536;-54
2023/08/10 09:00:24;;;;;;;4.13;1.40;;;21.70;99.90;;;;;;4862248;29;20702;-55
2023/08/10 09:02:51;;;;;;;1.48;1.10;;;22.00;99.90;;;;;;4862186;29;20190;-52
2023/08/10 09:05:18;;;;;;;4.45;1.50;;;22.00;99.90;;;;;;4862229;29;20201;-54
2023/08/10 09:07:43;;;;;;;3.72;1.40;;;22.00;99.90;;;;;;4862320;29;20197;-52
2023/08/10 09:10:09;;;;;;;3.03;1.15;;;22.10;99.90;;;;;;4862239;29;20651;-53
2023/08/10 09:12:37;;;;;;;2.38;1.40;;;22.20;99.90;;;;;;4862432;29;20628;-53
2023/08/10 09:15:06;;;;;;;1.70;1.02;;;22.40;99.90;;;;;;4862004;29;20229;-54
2023/08/10 09:17:34;;;;;;;2.60;1.40;;;22.60;99.90;;;;;;4856708;29;20277;-53
2023/08/10 09:20:00;;;;;;;1.88;1.45;;;22.70;99.90;;;;;;4861731;29;20221;-55
2023/08/10 09:22:37;;;;;;;4.20;1.55;;;22.60;99.90;;;;;;4862136;29;20185;-54
2023/08/10 09:25:05;;;;;;;3.33;1.60;;;22.40;99.90;;;;;;4861603;29;20173;-53
2023/08/10 09:27:31;;;;;;;2.53;1.50;;;22.60;99.90;;;;;;4861192;29;20186;-54
2023/08/10 09:29:59;;;;;;;4.07;1.40;;;22.50;99.90;;;;;;4861746;29;20181;-53
2023/08/10 09:32:25;;;;;;;2.50;1.30;;;22.70;99.90;;;;;;4861863;29;20241;-54
2023/08/10 09:34:53;;;;;;;4.15;1.70;;;22.80;99.90;;;;;;4861520;29;20186;-54
2023/08/10 09:37:26;;;;;;;4.10;1.60;;;22.70;99.90;;;;;;4861408;29;20318;-53
2023/08/10 09:39:57;;;;;;;2.35;1.40;;;22.80;99.90;;;;;;4860167;29;20221;-54
2023/08/10 09:42:30;;;;;;;4.82;1.30;;;22.80;99.90;;;;;;4860272;29;20280;-54
2023/08/10 09:44:58;;;;;;;2.72;1.45;;;23.00;99.90;;;;;;4861761;29;20178;-53
2023/08/10 09:47:24;;;;;;;3.00;1.20;;;23.00;99.90;;;;;;4861414;29;20643;-54
2023/08/10 09:49:55;;;;;;;1.85;1.10;;;23.10;99.90;;;;;;4861565;29;20185;-55
2023/08/10 09:52:24;;;;;;;3.70;1.50;;;22.90;99.90;;;;;;4861559;29;20186;-54
2023/08/10 09:54:51;;;;;;;1.85;1.17;;;23.00;99.90;;;;;;4861627;29;20540;-54
2023/08/10 09:57:18;;;;;;;1.98;1.15;;;23.10;99.90;;;;;;4861524;29;20178;-54
2023/08/10 09:59:45;;;;;;;2.92;1.50;;;23.00;99.90;;;;;;4861434;29;20544;-52
2023/08/10 10:02:11;;;;;;;1.92;1.25;;;23.10;99.90;;;;;;4861314;29;20238;-53
2023/08/10 10:04:41;;;;;;;1.92;1.27;;;23.30;99.90;;;;;;4861335;29;20277;-54
2023/08/10 10:07:08;;;;;;;2.65;1.30;;;23.30;99.90;;;;;;4861165;29;20626;-54
2023/08/10 10:09:37;;;;;;;2.17;1.10;;;23.40;99.90;;;;;;4861013;29;20688;-51
2023/08/10 10:12:07;;;;;;;1.58;1.20;;;23.60;99.90;;;;;;4861325;29;20277;-54
2023/08/10 10:14:35;;;;;;;2.60;1.13;;;23.70;99.90;;;;;;4844694;29;20550;-55
2023/08/10 10:17:03;;;;;;;2.13;1.20;;;23.80;99.90;;;;;;4861130;29;20628;-53
2023/08/10 10:19:30;;;;;;;3.75;1.02;;;23.80;99.90;;;;;;4860977;29;20174;-53
2023/08/10 10:21:56;;;;;;;2.03;1.00;;;24.00;99.90;;;;;;4860913;29;20266;-55
2023/08/10 10:24:21;;;;;;;2.15;1.10;;;24.10;99.90;;;;;;4852569;29;20236;-55
2023/08/10 10:27:11;;;;;;;2.78;1.20;;;23.90;99.90;;;;;;4860943;29;20647;-54
2023/08/10 10:29:37;;;;;;;1.52;1.13;;;24.00;99.90;;;;;;4861003;29;20535;-53
2023/08/10 10:32:05;;;;;;;1.42;1.10;;;24.10;99.90;;;;;;4860856;29;20289;-53
2023/08/10 10:34:36;;;;;;;2.10;1.17;;;24.20;99.90;;;;;;4860472;29;20249;-53
2023/08/10 10:37:29;;;;;;;2.63;1.30;;;24.30;99.90;;;;;;4861287;29;20703;-53
2023/08/10 10:40:12;;;;;;;2.92;1.20;;;24.30;99.90;;;;;;4864837;29;20186;-52
2023/08/10 10:43:00;;;;;;;2.63;1.40;;;24.50;99.90;;;;;;4848271;29;20205;-52
2023/08/10 10:45:27;;;;;;;3.08;1.60;;;24.40;99.90;;;;;;4864518;29;20543;-54
2023/08/10 10:47:55;;;;;;;4.10;1.20;;;24.60;99.90;;;;;;4864869;29;20188;-54
2023/08/10 10:50:22;;;;;;;2.45;1.17;;;24.40;99.90;;;;;;4861446;29;20689;-54
2023/08/10 10:52:58;;;;;;;2.63;1.23;;;24.40;99.90;;;;;;4864499;29;20174;-52
2023/08/10 10:55:25;;;;;;;2.75;1.25;;;24.50;99.90;;;;;;4864354;29;20501;-52
2023/08/10 10:57:51;;;;;;;2.08;1.05;;;24.60;99.90;;;;;;4864405;29;20203;-54
2023/08/10 11:00:22;;;;;;;2.17;1.30;;;24.60;99.90;;;;;;4864302;29;20186;-52
2023/08/10 11:02:49;;;;;;;1.67;1.08;;;24.70;99.90;;;;;;4864472;29;20182;-54
2023/08/10 11:05:17;;;;;;;2.13;0.90;;;24.70;99.90;;;;;;4864288;29;20289;-54
2023/08/10 11:07:51;;;;;;;2.13;1.20;;;24.50;99.90;;;;;;4864205;29;20210;-53
2023/08/10 11:10:19;;;;;;;1.80;1.20;;;24.70;99.90;;;;;;4864406;29;20201;-55
2023/08/10 11:12:48;;;;;;;1.77;1.10;;;24.50;99.30;;;;;;4864378;29;20178;-53
2023/08/10 11:15:15;;;;;;;1.70;1.15;;;24.60;99.90;;;;;;4860679;29;20189;-54
2023/08/10 11:17:42;;;;;;;1.35;1.00;;;24.60;99.90;;;;;;4882769;29;20217;-53
2023/08/10 11:20:18;;;;;;;1.83;1.00;;;24.70;99.90;;;;;;4882199;29;20714;-53
2023/08/10 11:22:53;;;;;;;3.17;1.25;;;25.00;99.90;;;;;;4882622;29;20562;-53
2023/08/10 11:25:24;;;;;;;2.97;1.10;;;24.90;99.90;;;;;;4882811;29;20196;-54
2023/08/10 11:27:51;;;;;;;3.33;1.40;;;24.90;99.90;;;;;;4882795;29;20174;-55
2023/08/10 11:30:19;;;;;;;1.67;1.25;;;25.00;99.90;;;;;;4882274;29;20591;-55
2023/08/10 11:32:47;;;;;;;2.90;1.30;;;24.90;99.90;;;;;;4881740;29;20201;-53
2023/08/10 11:35:17;;;;;;;2.80;1.23;;;25.20;99.90;;;;;;4882135;29;20189;-53
2023/08/10 11:37:43;;;;;;;1.95;1.20;;;25.20;99.90;;;;;;4882515;29;20189;-51
2023/08/10 11:40:13;;;;;;;2.10;0.98;;;25.30;99.90;;;;;;4882381;29;20193;-54
2023/08/10 11:42:49;;;;;;;2.38;1.20;;;25.20;99.90;;;;;;4882262;29;20579;-52
2023/08/10 11:45:19;;;;;;;1.58;1.15;;;25.20;99.90;;;;;;4881812;29;20634;-53
2023/08/10 11:47:57;;;;;;;2.03;1.27;;;25.20;99.90;;;;;;4882259;29;20174;-54
2023/08/10 11:50:25;;;;;;;2.35;1.40;;;25.10;98.90;;;;;;4881280;29;20181;-54
2023/08/10 11:52:54;;;;;;;2.55;1.25;;;24.70;99.90;;;;;;4879521;29;20512;-53
2023/08/10 11:55:21;;;;;;;2.97;1.40;;;24.70;99.90;;;;;;4858093;29;20632;-53
2023/08/10 11:57:51;;;;;;;2.15;1.30;;;24.90;99.90;;;;;;4863370;29;20178;-53
2023/08/10 12:00:25;;;;;;;8.30;1.45;;;25.00;99.90;;;;;;4863478;29;20210;-53
2023/08/10 12:03:13;;;;;;;2.30;1.20;;;24.90;99.90;;;;;;4863518;29;20186;-54
2023/08/10 12:05:43;;;;;;;5.85;1.40;;;24.90;99.90;;;;;;4863358;29;20644;-49
2023/08/10 12:08:14;;;;;;;2.25;1.30;;;24.90;99.90;;;;;;4863295;29;20213;-53
2023/08/10 12:10:42;;;;;;;2.83;1.38;;;25.10;99.90;;;;;;4863224;29;20184;-54
2023/08/10 12:13:18;;;;;;;3.33;1.20;;;25.30;99.90;;;;;;4863124;29;20587;-53
2023/08/10 12:15:46;;;;;;;2.75;1.35;;;25.40;99.90;;;;;;4852059;29;20189;-55
2023/08/10 12:18:17;;;;;;;2.53;1.23;;;25.20;99.70;;;;;;4881559;29;20538;-54
2023/08/10 12:20:47;;;;;;;1.52;1.20;;;25.30;99.90;;;;;;4881584;29;20212;-53
2023/08/10 12:23:14;;;;;;;4.75;1.63;;;25.30;99.90;;;;;;4881517;29;20181;-53
2023/08/10 12:25:41;;;;;;;1.42;1.20;;;25.50;99.90;;;;;;4881805;29;20181;-53
2023/08/10 12:28:07;;;;;;;1.75;1.20;;;25.70;99.90;;;;;;4881658;29;20213;-53
2023/08/10 12:30:34;;;;;;;2.42;1.52;;;25.70;99.40;;;;;;4881159;29;20607;-55
2023/08/10 12:33:00;;;;;;;2.55;1.30;;;25.40;99.10;;;;;;4881227;29;20205;-53
2023/08/10 12:35:26;;;;;;;1.63;1.10;;;25.50;99.90;;;;;;4880002;29;20178;-52
2023/08/10 12:37:52;;;;;;;2.53;1.33;;;25.50;99.80;;;;;;4862792;29;20577;-53
2023/08/10 12:40:18;;;;;;;3.13;1.20;;;25.50;99.60;;;;;;4862745;29;20190;-55
2023/08/10 12:42:44;;;;;;;2.58;1.30;;;25.40;99.90;;;;;;4862613;29;20606;-54
2023/08/10 12:45:11;;;;;;;1.75;1.27;;;25.60;99.90;;;;;;4862314;29;20226;-55
2023/08/10 12:47:38;;;;;;;3.60;1.50;;;25.50;99.90;;;;;;4862625;29;20265;-53
2023/08/10 12:50:05;;;;;;;3.65;1.50;;;25.50;99.90;;;;;;4862421;29;20182;-53